ראשי / חיפושים אחרונים

חיפושים אחרונים

לוחית
סוג רכב
דגם
שנה
תאריך חיפוש
שעת חיפוש
7890176 פולקסווגן מקסיקה JETTA 2012 02/09/2026 21:41:17
54198201 יונדאי טורקיה - 2018 02/09/2026 21:41:13
55510201 מרצדס הונגריה CLA180 2018 02/09/2026 21:41:11
26429102 קוואסאקי ארה"ב - 2021 02/09/2026 21:41:11
4247175 מזדה יפן MAZDA 3 2012 02/09/2026 21:41:10
3730954 סקודה צ'כיה OCTAVIA 2015 02/09/2026 21:41:08
9555034 טויוטה תאילנד HILUX 2015 02/09/2026 21:41:07
5754065 מזדה יפן MAZDA3 2008 02/09/2026 21:41:07
9555034 טויוטה תאילנד HILUX 2015 02/09/2026 21:41:02
26279704 שברולט ארהב" TRAVERSE 2026 02/09/2026 21:41:02
18120203 סקודה צ'כיה FABIA 2022 02/09/2026 21:41:01
68100102 פיגו איטליה - 2021 02/09/2026 21:41:00
2260212 סקודה צ'כיה CITIGO 2012 02/09/2026 21:40:59
32952804 ב מ וו ארהב" X5 XDRIVE 50E 2025 02/09/2026 21:40:57
6680965 מזדה יפן MAZDA 6 2008 02/09/2026 21:40:56
53250104 ג'י.אמ.סי ארה - 2025 02/09/2026 21:40:54
2267507 פולקסווגן גרמנ - 1992 02/09/2026 21:40:53
1340864 שברולט ארהב" MALIBU LT 2007 02/09/2026 21:40:52
57048701 בנלי - 2018 02/09/2026 21:40:50
16515901 מיצובישי תאילנד SPACE STAR 2018 02/09/2026 21:40:47
8612424 קיה קוריאה MENTOR 2001 02/09/2026 21:40:46
38172401 סוזוקי הונגריה SX4 CROSSOVER 2018 02/09/2026 21:40:45
87410903 אס ווי אמ סין - 2025 02/09/2026 21:40:42
92650301 מרצדס גרמניה C200 D 2016 02/09/2026 21:40:40
9456659 הונדה יפן ACCORD 2005 02/09/2026 21:40:40
18234501 רנו צרפת KANGOO 2017 02/09/2026 21:40:39
60057504 אאודי גרמניה A5 SEDAN 40 2026 02/09/2026 21:40:37
1010273 יונדאי צ'כיה I30 2010 02/09/2026 21:40:32
62819802 מיצובישי יפן OUTLANDER 2021 02/09/2026 21:40:32
1015650 טויוטה יפן PRADO 2002 02/09/2026 21:40:32
3604431 יונדאי טורקיה I20 2014 02/09/2026 21:40:30
40970802 קיה קוריאה הדרומית PICANTO 2021 02/09/2026 21:40:24
50305403 צ'רי סין TIGGO 8 PRO 2023 02/09/2026 21:40:20
3205901 פיאג'ו איטליה - 1997 02/09/2026 21:40:20
39524301 בנלי - 2018 02/09/2026 21:40:17
4192479 ניסאן הודו MICRA 2012 02/09/2026 21:40:13
9200434 טויוטה טורקיה COROLLA 2015 02/09/2026 21:40:13
4475434 אופל ד. קוריאה MOKKA 2015 02/09/2026 21:40:06
6755874 מיצובישי יפן GRANDIS 2011 02/09/2026 21:40:06
9248638 קיה סלובקיה CEED 2016 02/09/2026 21:40:04
10984704 סקודה צ'כיה SUPERB 2025 02/09/2026 21:40:02
5581473 אאודי גרמניה A4 2011 02/09/2026 21:40:02
2855560 סובארו יפן B4 2006 02/09/2026 21:39:59
4195908 הונדה מקסיקו HR-V 2016 02/09/2026 21:39:52
7453870 הונדה טורקיה CIVIC 2011 02/09/2026 21:39:50
8988853 פורשה גרמניה 911 TURBO S 2014 02/09/2026 21:39:44
74266004 ב מ וו גרמניה M4 COMPETITION 2026 02/09/2026 21:39:44
32783404 טסלה גרמניה MODEL Y 2025 02/09/2026 21:39:43
72489601 שברולט מקסיקו EQUINOX 2020 02/09/2026 21:39:38
8548070 פולקסווגן ספרד POLO 2010 02/09/2026 21:39:32
1024085 קיה סלובקיה CEED 2016 02/09/2026 21:39:30
5786338 אאודי גרמניה A4 2017 02/09/2026 21:39:25
78927102 מרצדס בנץ גרמנ - 2022 02/09/2026 21:39:22
4819733 קיה קוריאה הדרומית FORTE 2015 02/09/2026 21:39:17
2460739 סובארו יפן FORESTER 2017 02/09/2026 21:39:16
8670084 ימהה תאילנד - 2017 02/09/2026 21:39:12
53790302 יונדאי טורקיה I20 2021 02/09/2026 21:39:11
1359434 מיצובישי יפן OUTLANDER 2015 02/09/2026 21:39:09
1119814 ניסאן ספרד - 2006 02/09/2026 21:39:05
8181663 פיג'ו צרפת 307 2008 02/09/2026 21:39:04
1208832 יונדאי צ'כיה I30 2015 02/09/2026 21:39:01
44219903 קיה קוריאה הדרומית NIRO PLUS PHEV 2023 02/09/2026 21:38:59
23814001 וולבו צרפת - 2018 02/09/2026 21:38:58
5777969 שברולט ארהב" MALIBU 2009 02/09/2026 21:38:37
5754065 מזדה יפן MAZDA3 2008 02/09/2026 21:38:35
38621904 שברולט ארהב" - 2025 02/09/2026 21:38:33
3048071 מזדה יפן MAZDA 3 2010 02/09/2026 21:38:32
54559501 יונדאי טורקיה I20 2019 02/09/2026 21:38:31
9821828 סוזוקי יפן LIANA 2006 02/09/2026 21:38:29
6299011 ב מ וו גרמניה 316I 2013 02/09/2026 21:38:29
1114814 ניסאן בריטניה PRIMERA 2006 02/09/2026 21:38:27
34185101 מזדה תאילנד MAZDA 2 2018 02/09/2026 21:38:25
42834101 קיה קוריאה הדרומית NIRO 2019 02/09/2026 21:38:24
6830153 סיאט ספרד IBIZA 2015 02/09/2026 21:38:24
4376776 יונדאי קוריאה הדרומית I25 2011 02/09/2026 21:38:20
84901702 פורד ד אפריקה RANGER 2023 02/09/2026 21:38:20
2099280 איסוזו יפן - 2016 02/09/2026 21:38:20
61686604 צ'רי סין FX HEV 2026 02/09/2026 21:38:19
3048071 מזדה יפן MAZDA 3 2010 02/09/2026 21:38:19
9096052 פולקסווגן גרמניה GOLF 2013 02/09/2026 21:38:12
60587101 מזדה יפן CX-3 2019 02/09/2026 21:38:09
48037202 סי.אף.מוטו.סין - 2022 02/09/2026 21:38:07
3333372 שברולט קוריאה הדרומית OPTRA 2009 02/09/2026 21:38:05
4668480 סקודה צ'כיה NEW SUPERB 2017 02/09/2026 21:38:01
3323554 רנו טורקיה MEGANE 2014 02/09/2026 21:37:58
2903562 דייהטסו יפן TERIOS 2007 02/09/2026 21:37:56
4999474 טויוטה טורקיה VERSO 2011 02/09/2026 21:37:54
40207901 פיאט טורקיה FIAT TIPO 2018 02/09/2026 21:37:47
1207860 טויוטה יפן COROLLA 2006 02/09/2026 21:37:44
54559501 יונדאי טורקיה I20 2019 02/09/2026 21:37:40
1132370 קואנג יאנג טיו - 2009 02/09/2026 21:37:35
4293066 מיצובישי יפן LANCER 2008 02/09/2026 21:37:31
84306701 יונדאי טורקיה I10 2019 02/09/2026 21:37:29
3048071 מזדה יפן MAZDA 3 2010 02/09/2026 21:37:28
12344001 טויוטה בריטניה AURIS HYBRID 2018 02/09/2026 21:37:24
1699934 מרצדס גרמניה GLA250 4MATIC 2015 02/09/2026 21:37:23
1309750 טויוטה יפן LAND CRISER 2003 02/09/2026 21:37:20
22971303 קי.טי.אמ אוסטר - 2023 02/09/2026 21:37:18
3048071 מזדה יפן MAZDA 3 2010 02/09/2026 21:37:17
9971854 מזדה יפן MAZDA 3 2016 02/09/2026 21:37:12
54559501 יונדאי טורקיה I20 2019 02/09/2026 21:37:08
54559501 יונדאי טורקיה I20 2019 02/09/2026 21:37:07
10936204 סקודה צ'כיה OCTAVIA FL 2025 02/09/2026 21:37:03
76952501 מיצובישי יפן ECLIPSE CROSS 2019 02/09/2026 21:37:03
53002003 אופל ספרד CORSA 2024 02/09/2026 21:37:02
86650601 סוזוקי הונגריה VITARA 2019 02/09/2026 21:37:00
4652051 פיג'ו צרפת 307 2004 02/09/2026 21:37:00
5754065 מזדה יפן MAZDA3 2008 02/09/2026 21:36:51
7055278 יונדאי קוריאה הדרומית IX35 2011 02/09/2026 21:36:51
54559501 יונדאי טורקיה I20 2019 02/09/2026 21:36:39
4475434 אופל ד. קוריאה MOKKA 2015 02/09/2026 21:36:33
76250303 בי ווי די סין BYD DOLPHIN 2024 02/09/2026 21:36:32
21287301 ניסאן הודו MICRA 2018 02/09/2026 21:36:31
43022304 טויוטה יפן COROLLA CROSS 2025 02/09/2026 21:36:30
8954905 סוזוקי-יפן - 1994 02/09/2026 21:36:29
1208832 יונדאי צ'כיה I30 2015 02/09/2026 21:36:28
57652702 סיטרואן ספרד C4 2021 02/09/2026 21:36:28
15218003 מזדה יפן MAZDA CX-5 2022 02/09/2026 21:36:27
2268739 סובארו יפן XV 2017 02/09/2026 21:36:26
91178801 טויוטה יפן - 2005 02/09/2026 21:36:22
59935004 סקודה צ'כיה OCTAVIA FL 2026 02/09/2026 21:36:22
5201776 יונדאי קוריאה הדרומית I35 2011 02/09/2026 21:36:21
1081374 מרצדס ספרד 111CDI VITO 2011 02/09/2026 21:36:17
50243904 טויוטה צרפת YARIS CROSS HSD 2026 02/09/2026 21:36:16
51302302 שברולט ארהב" - 2021 02/09/2026 21:36:15
70820102 טויוטה טורקיה COROLLA SDN HSD 2021 02/09/2026 21:36:13
4475434 אופל ד. קוריאה MOKKA 2015 02/09/2026 21:36:13
1603574 סיטרואן תורכיה BERLINGO 2010 02/09/2026 21:36:09
3795868 סאן יאנג טיואן - 2009 02/09/2026 21:36:08
30060602 שברולט מקסיקו BLAZER 2021 02/09/2026 21:36:07
5754065 מזדה יפן MAZDA3 2008 02/09/2026 21:36:04
77614402 טסלה סין MODEL 3 2021 02/09/2026 21:36:02
2866732 שברולט מקסיקו CAPTIVA SPORT 2014 02/09/2026 21:36:00
59400904 לקסוס יפן LEXUS LBX 2026 02/09/2026 21:35:54
1222930 סובארו יפן XV 2015 02/09/2026 21:35:50
7502656 פיג'ו צרפת - 2004 02/09/2026 21:35:49
74406903 טויוטה יפן COROLLA CROSS 2025 02/09/2026 21:35:48
24244102 שברולט ארהב" CAMARO 2020 02/09/2026 21:35:47
21267301 רנו טורקיה GRAND COUPE 2018 02/09/2026 21:35:45
7593511 מזדה יפן MAZDA 3 2014 02/09/2026 21:35:45
1718411 יונדאי טורקיה I20 2013 02/09/2026 21:35:45
23847401 וולבו בלגיה - 2018 02/09/2026 21:35:43
76250303 בי ווי די סין BYD DOLPHIN 2024 02/09/2026 21:35:41
6573865 מזדה יפן MAZDA 3 2008 02/09/2026 21:35:40
15552703 פורד ארהב" BRONCO WILDTRAK 2022 02/09/2026 21:35:37
1791178 פורשה גרמניה 911CARRERA GTS 2011 02/09/2026 21:35:37
9206769 טויוטה קנדה - 2009 02/09/2026 21:35:34
8120411 מזדה יפן MAZDA 3 2014 02/09/2026 21:35:33
2420023 סובארו יפן B4 2001 02/09/2026 21:35:32
37727902 שברולט ארהב" CORVETTE STINGR 2021 02/09/2026 21:35:31
6248073 סקודה צ'כיה OCTAVIA 2011 02/09/2026 21:35:29
6753713 סיטרואן צרפת C4 2012 02/09/2026 21:35:27
90302901 פורשה גרמניה - 2016 02/09/2026 21:35:24
5754065 מזדה יפן MAZDA3 2008 02/09/2026 21:35:23
65397001 סאן יאנג טיואן - 2019 02/09/2026 21:35:19
24617004 פולקסווגן פולי - 2025 02/09/2026 21:35:16
2912352 קיה קוריאה הדרומית PICANTO 2013 02/09/2026 21:35:14
8498752 דאף אנגליה - 2013 02/09/2026 21:35:14
21287301 ניסאן הודו MICRA 2018 02/09/2026 21:35:11
1208832 יונדאי צ'כיה I30 2015 02/09/2026 21:35:10
30619702 סיטרואן צרפת C5 AIRCROSS 2021 02/09/2026 21:35:10
49303503 סיאט ספרד CUPRA 2023 02/09/2026 21:35:09
6974630 טויוטה יפן PRIUS PLUS 2014 02/09/2026 21:35:09
41100202 קיה קוריאה הדרומית SELTOS 2021 02/09/2026 21:35:08
9706611 סאנגיונג קוריאה הדרומית RODIUS 2014 02/09/2026 21:35:07
6510539 יונדאי טורקיה I20 2016 02/09/2026 21:35:05
3233814 מזדה יפן MAZDA3 2006 02/09/2026 21:35:05
44836701 טויוטה טורקיה C-HR HYBRID 2018 02/09/2026 21:35:04
61114802 סקודה צ'כיה OCTAVIA 2021 02/09/2026 21:35:03
4132564 טויוטה יפן LEXUS IS 250 2008 02/09/2026 21:35:02
7583269 מ א ן גרמניה - 2013 02/09/2026 21:35:01
6972931 קיה קוריאה הדרומית PICANTO 2014 02/09/2026 21:35:00
69891603 מרצדס בנץ גרמנ - 2025 02/09/2026 21:35:00
1270037 טויוטה יפן RAV 4 HYBRID 2016 02/09/2026 21:34:58
5754065 מזדה יפן MAZDA3 2008 02/09/2026 21:34:57
3321173 סוזוקי הונגריה SWIFT 2010 02/09/2026 21:34:57
1465833 ניסאן בריטניה JUKE 2015 02/09/2026 21:34:57
1141473 יונדאי קוריאה הדרומית GETZ 2010 02/09/2026 21:34:57
4590081 יונדאי קוריאה הדרומית SONATA HYBRID 2017 02/09/2026 21:34:53
1001631 מרצדס גרמניה A180 2014 02/09/2026 21:34:51
1211238 סוזוקי הונגריה VITARA 2016 02/09/2026 21:34:50
5720385 קיה סלובקיה SPORTAGE 2017 02/09/2026 21:34:49
57652702 סיטרואן ספרד C4 2021 02/09/2026 21:34:48
21294101 ניסאן בריטניה QASHQAI 2018 02/09/2026 21:34:47
12061602 טויוטה טורקיה COROLLA HSD SDN 2019 02/09/2026 21:34:44
75838002 סיאט ספרד IBIZA 2022 02/09/2026 21:34:40
18361502 קיה קוריאה הדרומית NIRO 2020 02/09/2026 21:34:38
57652702 סיטרואן ספרד C4 2021 02/09/2026 21:34:34
58603402 סיאט ספרד ARONA 2021 02/09/2026 21:34:34
7516737 ניסאן הודו MICRA 2016 02/09/2026 21:34:32
34077304 טויוטה ארהב" HIGHLANDER 2025 02/09/2026 21:34:31
57652702 סיטרואן ספרד C4 2021 02/09/2026 21:34:30
35387002 וולבו שבדיה - 2022 02/09/2026 21:34:29
4999474 טויוטה טורקיה VERSO 2011 02/09/2026 21:34:29
83590903 יונדאי קוריאה הדרומית VENUE 2024 02/09/2026 21:34:29
8562130 פיג'ו צרפת 2008 2015 02/09/2026 21:34:28
4645123 סיטרואן צרפת SAXO 2000 02/09/2026 21:34:26
1062234 מרצדס גרמניה E250 2015 02/09/2026 21:34:25
9182728 סוזוקי יפן GRAND VITARA 2005 02/09/2026 21:34:24
48897201 סיטרואן סלובקיה C3 2019 02/09/2026 21:34:23
וואטסאפ